Time;durP1;ratioP1;P1;durP2;ratioP2;P2;SDS_P1;SDS_P2;PMS_P1;PMS_P2;Temp;Humidity;BMP_temperature;BMP_pressure;BME280_temperature;BME280_humidity;BME280_pressure;Samples;Min_cycle;Max_cycle;Signal;HPM_P1;HPM_P2
2022/07/07 00:00:18;;;;;;;5.03;4.50;;;;;;;17.49;84.06;102053.59;5012745;28;20051;-46
2022/07/07 00:02:44;;;;;;;8.32;5.10;;;;;;;17.47;83.22;102054.03;5013040;28;20501;-45
2022/07/07 00:05:11;;;;;;;6.93;4.80;;;;;;;17.49;83.78;102057.03;5012781;28;20046;-45
2022/07/07 00:07:37;;;;;;;8.45;4.70;;;;;;;17.52;83.31;102053.44;5012329;28;20450;-46
2022/07/07 00:10:04;;;;;;;5.40;4.90;;;;;;;17.52;83.46;102045.34;5013361;28;21021;-46
2022/07/07 00:12:31;;;;;;;5.18;4.65;;;;;;;17.49;83.36;102048.22;5013211;28;20050;-46
2022/07/07 00:14:57;;;;;;;4.47;4.18;;;;;;;17.49;84.01;102048.97;5013010;28;20046;-45
2022/07/07 00:17:24;;;;;;;5.43;4.15;;;;;;;17.50;84.07;102033.56;5013542;28;20433;-45
2022/07/07 00:19:51;;;;;;;6.00;4.57;;;;;;;17.51;84.24;102043.13;5016823;28;20046;-45
2022/07/07 00:22:17;;;;;;;5.18;4.22;;;;;;;17.49;84.35;102040.13;5016621;28;20133;-46
2022/07/07 00:24:44;;;;;;;5.47;4.43;;;;;;;17.46;85.12;102036.41;5016837;28;20061;-46
2022/07/07 00:27:10;;;;;;;4.93;4.45;;;;;;;17.38;85.49;102029.84;5016216;28;20054;-45
2022/07/07 00:29:37;;;;;;;8.10;4.95;;;;;;;17.38;86.24;102029.84;5015633;28;20050;-44
2022/07/07 00:32:03;;;;;;;5.00;4.70;;;;;;;17.38;85.94;102029.13;5016320;28;20061;-46
2022/07/07 00:34:30;;;;;;;5.15;4.68;;;;;;;17.41;86.82;102031.63;5016591;28;20055;-44
2022/07/07 00:36:56;;;;;;;6.43;4.53;;;;;;;17.42;86.89;102029.69;5015819;28;20062;-44
2022/07/07 00:39:22;;;;;;;6.50;4.47;;;;;;;17.42;86.84;102024.31;5016228;28;20062;-46
2022/07/07 00:41:49;;;;;;;6.03;4.57;;;;;;;17.43;86.62;102025.81;5015891;28;20054;-45
2022/07/07 00:44:17;;;;;;;7.63;4.50;;;;;;;17.42;86.62;102016.22;5016467;28;20054;-45
2022/07/07 00:46:46;;;;;;;4.90;4.50;;;;;;;17.43;86.08;102005.00;5016253;28;20061;-44
2022/07/07 00:49:13;;;;;;;7.57;4.60;;;;;;;17.42;86.30;102006.22;5015974;28;20055;-44
2022/07/07 00:51:41;;;;;;;6.18;4.50;;;;;;;17.42;86.98;102008.16;5016524;28;20977;-45
2022/07/07 00:54:08;;;;;;;6.20;4.65;;;;;;;17.42;86.72;102005.47;5015925;28;20050;-45
2022/07/07 00:56:35;;;;;;;5.50;4.80;;;;;;;17.38;87.46;102000.25;5015867;28;20058;-47
2022/07/07 00:59:06;;;;;;;6.28;4.57;;;;;;;17.38;87.19;102002.19;5015370;28;20051;-45
2022/07/07 01:01:37;;;;;;;4.30;3.90;;;;;;;17.39;87.94;101996.34;5015773;28;20061;-45
2022/07/07 01:04:09;;;;;;;5.68;4.60;;;;;;;17.41;87.21;101999.34;5016360;28;20518;-45
2022/07/07 01:06:35;;;;;;;;;;;;;;;17.37;86.54;101990.69;5016510;28;20113;-45
2022/07/07 01:09:03;;;;;;;4.97;4.13;;;;;;;17.37;87.37;101985.31;5015915;28;19930;-45
2022/07/07 01:11:56;;;;;;;4.75;4.25;;;;;;;17.33;87.34;101987.41;5015452;28;20054;-47
2022/07/07 01:14:24;;;;;;;7.93;3.97;;;;;;;17.34;87.21;101986.97;5015826;28;20054;-45
2022/07/07 01:16:52;;;;;;;7.10;4.10;;;;;;;17.37;87.57;101985.31;5015394;28;20498;-45
2022/07/07 01:19:20;;;;;;;10.15;4.00;;;;;;;17.41;86.79;101983.19;5015828;28;20059;-45
2022/07/07 01:21:52;;;;;;;9.40;3.42;;;;;;;17.40;86.95;101970.94;5014907;28;20050;-46
2022/07/07 01:24:19;;;;;;;4.30;3.53;;;;;;;17.43;86.66;101972.72;5015385;28;20054;-45
2022/07/07 01:26:46;;;;;;;6.80;3.33;;;;;;;17.42;87.12;101963.16;5015724;28;20054;-44
2022/07/07 01:29:12;;;;;;;3.67;3.38;;;;;;;17.42;87.21;101970.47;5013466;28;20054;-46
2022/07/07 01:31:38;;;;;;;4.18;3.45;;;;;;;17.44;87.50;101973.47;5014602;28;20061;-44
2022/07/07 01:34:05;;;;;;;3.55;3.30;;;;;;;17.41;88.99;101972.44;5013924;28;20046;-45
2022/07/07 01:36:31;;;;;;;5.93;3.30;;;;;;;17.28;89.62;101977.25;5015615;28;20085;-45
2022/07/07 01:38:58;;;;;;;5.68;2.63;;;;;;;17.20;89.01;101965.34;5014180;28;20055;-46
2022/07/07 01:41:24;;;;;;;3.95;2.40;;;;;;;17.10;87.94;101963.91;5013662;28;20057;-46
2022/07/07 01:43:51;;;;;;;6.25;2.10;;;;;;;16.94;87.79;101973.81;5015394;28;20061;-45
2022/07/07 01:46:17;;;;;;;2.95;1.92;;;;;;;16.88;88.22;101972.94;5014190;28;20492;-46
2022/07/07 01:48:44;;;;;;;1.80;1.65;;;;;;;16.82;88.23;101988.19;5013743;28;20481;-46
2022/07/07 01:51:11;;;;;;;1.60;1.50;;;;;;;16.77;87.89;101985.41;5013648;28;20046;-45
2022/07/07 01:53:37;;;;;;;4.03;1.55;;;;;;;16.68;87.56;101983.47;5012064;28;20055;-46
2022/07/07 01:56:04;;;;;;;3.25;1.90;;;;;;;16.62;87.06;101985.25;5015331;28;20058;-45
2022/07/07 01:58:31;;;;;;;4.07;1.60;;;;;;;16.60;87.51;101984.94;5015095;28;20054;-46
2022/07/07 02:00:57;;;;;;;3.90;1.58;;;;;;;16.54;87.90;101978.69;5013529;28;20050;-45
2022/07/07 02:03:25;;;;;;;2.65;1.67;;;;;;;16.54;87.77;101973.31;5014943;28;21166;-45
2022/07/07 02:05:52;;;;;;;4.47;1.88;;;;;;;16.52;87.84;101970.31;5014461;28;20058;-43
2022/07/07 02:08:19;;;;;;;3.45;1.80;;;;;;;16.46;88.46;101978.25;5012763;28;20046;-45
2022/07/07 02:13:31;;;;;;;5.97;1.67;;;;;;;16.31;90.44;101980.81;5013633;28;20054;-43
2022/07/07 02:15:57;;;;;;;6.28;1.85;;;;;;;16.24;91.26;101972.31;5011453;28;20054;-45
2022/07/07 02:18:24;;;;;;;1.77;1.65;;;;;;;16.25;91.72;101966.47;5015129;28;20050;-46
2022/07/07 02:20:50;;;;;;;2.95;2.10;;;;;;;16.20;91.87;101959.00;5014283;28;20054;-43
2022/07/07 02:23:16;;;;;;;6.00;2.00;;;;;;;16.15;92.38;101962.28;5015282;28;20070;-44
2022/07/07 02:25:43;;;;;;;2.65;1.90;;;;;;;16.15;92.22;101975.72;5014715;28;20502;-44
2022/07/07 02:28:09;;;;;;;3.58;1.90;;;;;;;16.14;92.26;101970.81;5012053;28;20077;-44
2022/07/07 02:30:35;;;;;;;2.35;1.92;;;;;;;16.17;92.69;101967.22;5014808;28;20046;-44
2022/07/07 02:33:02;;;;;;;2.75;2.05;;;;;;;16.19;92.82;101960.22;5014770;28;20057;-46
2022/07/07 02:35:28;;;;;;;2.85;1.80;;;;;;;16.20;92.65;101960.97;5013479;28;20498;-45
2022/07/07 02:37:55;;;;;;;3.15;1.85;;;;;;;16.15;92.65;101956.94;5014984;28;20497;-47
2022/07/07 02:40:21;;;;;;;2.03;1.92;;;;;;;16.15;93.15;101959.63;5013496;28;20050;-45
2022/07/07 02:42:47;;;;;;;7.45;2.40;;;;;;;16.16;92.95;101958.41;5013746;28;20066;-45
2022/07/07 02:45:14;;;;;;;7.57;2.58;;;;;;;16.16;92.90;101958.41;5014464;28;20058;-45
2022/07/07 02:47:40;;;;;;;3.28;2.58;;;;;;;16.09;93.63;101955.28;5013504;28;20396;-44
2022/07/07 02:50:07;;;;;;;3.58;2.33;;;;;;;16.04;94.51;101955.88;5013371;28;20181;-44
2022/07/07 02:52:33;;;;;;;2.55;2.38;;;;;;;16.01;94.37;101947.53;5013298;28;20130;-48
2022/07/07 02:54:59;;;;;;;3.80;2.58;;;;;;;16.00;94.73;101956.03;5014378;28;20062;-46
2022/07/07 02:57:26;;;;;;;2.72;2.63;;;;;;;16.01;95.91;101952.88;5013799;28;20055;-44
2022/07/07 02:59:52;;;;;;;2.67;2.47;;;;;;;15.98;95.50;101945.00;5014347;28;20189;-44
2022/07/07 03:02:19;;;;;;;5.88;2.80;;;;;;;15.97;95.25;101944.25;5013055;28;20038;-46
2022/07/07 03:04:45;;;;;;;2.97;2.67;;;;;;;15.94;95.23;101944.41;5013915;28;20066;-44
2022/07/07 03:07:12;;;;;;;3.00;2.80;;;;;;;15.93;95.90;101942.91;5014639;28;20050;-44
2022/07/07 03:09:38;;;;;;;2.92;2.70;;;;;;;15.97;95.87;101936.19;5013428;28;20054;-44
2022/07/07 03:12:05;;;;;;;3.30;3.00;;;;;;;15.97;96.22;101940.84;5013771;28;20180;-46
2022/07/07 03:14:32;;;;;;;3.47;2.97;;;;;;;15.94;96.18;101942.47;5014293;28;20556;-47
2022/07/07 03:16:58;;;;;;;3.40;3.10;;;;;;;15.93;96.47;101937.53;5013981;28;20500;-48
2022/07/07 03:19:25;;;;;;;3.88;3.00;;;;;;;15.95;96.14;101930.53;5013328;28;20061;-50
2022/07/07 03:21:51;;;;;;;5.10;3.30;;;;;;;15.95;96.38;101930.53;5014120;28;20568;-47
2022/07/07 03:24:18;;;;;;;3.53;3.08;;;;;;;15.98;96.13;101935.00;5013989;28;20059;-44
2022/07/07 03:26:44;;;;;;;3.15;2.85;;;;;;;15.93;96.21;101930.22;5013244;28;20058;-46
2022/07/07 03:29:10;;;;;;;4.07;3.38;;;;;;;15.95;96.57;101935.16;5014123;28;20050;-44
2022/07/07 03:31:37;;;;;;;5.65;3.00;;;;;;;15.96;96.25;101933.97;5013993;28;20058;-46
2022/07/07 03:34:03;;;;;;;3.63;3.17;;;;;;;15.94;96.73;101939.03;5014151;28;20090;-48
2022/07/07 03:36:30;;;;;;;4.97;3.13;;;;;;;15.97;97.59;101943.50;5013082;28;20140;-46
2022/07/07 03:38:56;;;;;;;5.43;3.25;;;;;;;15.95;96.85;101948.59;5012787;28;20101;-43
2022/07/07 03:41:23;;;;;;;6.93;3.60;;;;;;;15.97;96.82;101955.00;5012915;28;20054;-45
2022/07/07 03:43:49;;;;;;;3.70;3.20;;;;;;;15.98;96.75;101961.13;5013955;28;20054;-50
2022/07/07 03:46:16;;;;;;;3.53;3.22;;;;;;;15.92;96.92;101957.53;5013868;28;20058;-43
2022/07/07 03:48:42;;;;;;;4.78;3.60;;;;;;;15.88;97.31;101957.69;5013756;28;20054;-47
2022/07/07 03:51:09;;;;;;;6.97;3.13;;;;;;;15.85;97.69;101942.47;5013369;28;20050;-46
2022/07/07 03:53:35;;;;;;;4.30;2.92;;;;;;;15.85;97.55;101947.09;5015569;28;20089;-44
2022/07/07 03:56:02;;;;;;;6.13;3.25;;;;;;;15.89;97.47;101955.75;5016694;28;20109;-45
2022/07/07 03:58:28;;;;;;;8.20;2.60;;;;;;;15.87;97.86;101955.44;5016769;28;20054;-46
2022/07/07 04:00:55;;;;;;;3.70;2.25;;;;;;;15.87;97.65;101950.06;5017250;28;20521;-45
2022/07/07 04:03:21;;;;;;;3.60;1.98;;;;;;;15.76;97.93;101944.38;5016705;28;20086;-45
2022/07/07 04:05:48;;;;;;;5.78;1.80;;;;;;;15.72;97.51;101955.25;5016787;28;20526;-49
2022/07/07 04:08:14;;;;;;;6.22;2.15;;;;;;;15.70;97.60;101963.00;5016756;28;20054;-47
2022/07/07 04:10:41;;;;;;;3.33;1.60;;;;;;;15.70;97.01;101963.00;5017272;28;20062;-44
2022/07/07 04:13:07;;;;;;;5.47;1.40;;;;;;;15.67;96.66;101955.84;5016589;28;20499;-45
2022/07/07 04:15:34;;;;;;;3.35;1.20;;;;;;;15.65;96.51;101963.59;5016917;28;20458;-47
2022/07/07 04:18:02;;;;;;;3.40;1.48;;;;;;;15.64;96.82;101967.47;5017248;28;20050;-45
2022/07/07 04:20:29;;;;;;;1.63;1.25;;;;;;;15.62;96.92;101964.47;5016480;28;20046;-44
2022/07/07 04:22:56;;;;;;;4.50;1.33;;;;;;;15.64;97.09;101970.91;5016522;28;20046;-47
2022/07/07 04:25:29;;;;;;;3.65;1.23;;;;;;;15.66;96.36;101973.88;5016537;28;20082;-46
2022/07/07 04:27:55;;;;;;;4.70;1.67;;;;;;;15.66;96.05;101981.94;5016846;28;20050;-47
2022/07/07 04:30:22;;;;;;;6.35;1.40;;;;;;;15.65;95.81;101968.97;5016875;28;20085;-44
2022/07/07 04:32:48;;;;;;;3.40;1.40;;;;;;;15.70;95.97;101976.44;5016751;28;20121;-45
2022/07/07 04:35:15;;;;;;;4.35;1.52;;;;;;;15.72;95.43;101992.09;5015476;28;20070;-48
2022/07/07 04:37:41;;;;;;;7.75;1.60;;;;;;;15.70;95.96;101978.38;5016557;28;20054;-44
2022/07/07 04:40:08;;;;;;;6.60;1.58;;;;;;;15.65;96.32;101975.09;5014728;28;20050;-45
2022/07/07 04:42:35;;;;;;;8.45;1.38;;;;;;;15.67;96.07;101996.09;5016400;28;20058;-43
2022/07/07 04:45:01;;;;;;;6.00;1.50;;;;;;;15.80;95.49;101985.25;5015978;28;20512;-44
2022/07/07 04:47:28;;;;;;;6.65;1.58;;;;;;;15.79;94.94;101994.50;5016380;28;20485;-46
2022/07/07 04:49:54;;;;;;;4.38;1.08;;;;;;;15.68;95.43;102005.66;5014811;28;20133;-44
2022/07/07 04:52:21;;;;;;;6.30;1.30;;;;;;;15.59;93.96;102006.41;5016059;28;20106;-45
2022/07/07 04:54:47;;;;;;;6.43;1.60;;;;;;;15.58;94.11;102009.53;5015474;28;20576;-44
2022/07/07 04:57:19;;;;;;;13.05;1.33;;;;;;;15.60;94.94;102015.94;5016385;28;20070;-45
2022/07/07 04:59:45;;;;;;;5.75;1.35;;;;;;;15.73;92.83;102017.75;5016051;28;20488;-46
2022/07/07 05:02:12;;;;;;;10.00;2.05;;;;;;;15.82;92.64;102023.16;5015507;28;20061;-46
2022/07/07 05:04:38;;;;;;;5.72;1.58;;;;;;;15.95;91.82;102015.72;5015487;28;20137;-45
2022/07/07 05:07:05;;;;;;;6.70;1.40;;;;;;;16.14;90.13;102017.22;5016229;28;20051;-45
2022/07/07 05:09:31;;;;;;;7.18;1.55;;;;;;;16.23;89.07;102030.66;5015477;28;20054;-44
2022/07/07 05:11:58;;;;;;;7.05;1.35;;;;;;;16.16;90.07;102030.94;5014402;28;20546;-45
2022/07/07 05:14:24;;;;;;;8.60;1.85;;;;;;;16.18;89.72;102028.56;5015865;28;20502;-43
2022/07/07 05:16:50;;;;;;;9.57;1.42;;;;;;;16.22;87.54;102026.47;5015856;28;20052;-46
2022/07/07 05:19:17;;;;;;;7.00;1.60;;;;;;;16.40;87.60;102031.09;5015765;28;20108;-45
2022/07/07 05:21:43;;;;;;;10.30;1.80;;;;;;;16.46;86.40;102033.94;5014782;28;20539;-44
2022/07/07 05:24:10;;;;;;;11.15;1.73;;;;;;;16.47;85.12;102025.41;5013469;28;20058;-45
2022/07/07 05:26:37;;;;;;;9.10;1.60;;;;;;;16.41;84.36;102042.59;5013967;28;20054;-47
2022/07/07 05:29:03;;;;;;;11.90;1.88;;;;;;;16.23;86.72;102052.16;5013092;28;20054;-46
2022/07/07 05:31:29;;;;;;;11.25;2.17;;;;;;;16.09;86.92;102062.72;5014016;28;20131;-47
2022/07/07 05:33:56;;;;;;;11.80;2.00;;;;;;;16.04;87.28;102056.00;5014145;28;20055;-44
2022/07/07 05:36:24;;;;;;;5.03;1.95;;;;;;;15.95;87.46;102053.31;5015285;28;20485;-45
2022/07/07 05:38:50;;;;;;;10.80;1.58;;;;;;;15.86;87.91;102064.03;5015304;28;20153;-46
2022/07/07 05:41:17;;;;;;;10.98;1.90;;;;;;;15.87;87.84;102060.16;5015173;28;20488;-46
2022/07/07 05:43:44;;;;;;;8.43;1.80;;;;;;;15.85;87.44;102079.41;5015670;28;20054;-45
2022/07/07 05:46:11;;;;;;;8.80;1.60;;;;;;;15.67;89.50;102084.69;5014998;28;20046;-43
2022/07/07 05:48:38;;;;;;;11.82;1.85;;;;;;;15.46;92.85;102093.53;5014502;28;20081;-46
2022/07/07 05:51:04;;;;;;;11.90;2.22;;;;;;;15.37;94.98;102096.91;5015321;28;20058;-46
2022/07/07 05:53:31;;;;;;;9.13;2.42;;;;;;;15.40;94.88;102101.41;5015381;28;20057;-44
2022/07/07 05:55:57;;;;;;;7.15;1.70;;;;;;;15.56;96.34;102097.75;5014845;28;20046;-45
2022/07/07 05:58:24;;;;;;;10.77;2.10;;;;;;;15.94;96.11;102108.22;5015116;28;20051;-49
2022/07/07 06:00:50;;;;;;;7.43;1.90;;;;;;;16.91;90.74;102108.47;5014560;28;20478;-44
2022/07/07 06:03:17;;;;;;;5.88;1.55;;;;;;;17.19;85.30;102109.19;5015427;28;20051;-45
2022/07/07 06:05:43;;;;;;;6.20;1.40;;;;;;;16.58;87.81;102100.97;5015390;28;20078;-45
2022/07/07 06:08:10;;;;;;;8.00;1.98;;;;;;;16.29;89.67;102114.09;5014868;28;20054;-46
2022/07/07 06:10:36;;;;;;;5.40;1.15;;;;;;;16.26;88.77;102106.94;5015423;28;20050;-45
2022/07/07 06:13:03;;;;;;;6.38;1.65;;;;;;;16.85;89.31;102118.31;5014205;28;20144;-45
2022/07/07 06:15:33;;;;;;;4.22;1.35;;;;;;;17.11;85.09;102114.13;5013342;28;20552;-45
2022/07/07 06:18:01;;;;;;;5.25;1.65;;;;;;;16.86;85.42;102114.44;5014772;28;20573;-44
2022/07/07 06:20:34;;;;;;;4.28;1.30;;;;;;;17.58;85.21;102118.19;5013885;28;20064;-44
2022/07/07 06:23:01;;;;;;;7.03;1.35;;;;;;;21.60;69.49;102132.28;5014979;28;20051;-45
2022/07/07 06:25:27;;;;;;;4.28;1.17;;;;;;;22.41;61.11;102129.00;5013777;28;20566;-44
2022/07/07 06:27:54;;;;;;;3.40;1.10;;;;;;;20.49;68.77;102134.75;5014823;28;20055;-45
2022/07/07 06:30:21;;;;;;;3.97;1.48;;;;;;;19.11;72.85;102143.84;5013798;28;20060;-45
2022/07/07 06:32:47;;;;;;;6.75;1.60;;;;;;;18.09;76.44;102136.94;5014979;28;20129;-44
2022/07/07 06:35:14;;;;;;;5.53;1.50;;;;;;;17.57;79.37;102144.34;5014886;28;20061;-46
2022/07/07 06:37:41;;;;;;;10.18;1.50;;;;;;;17.22;81.49;102135.91;5014948;28;20399;-44
2022/07/07 06:40:08;;;;;;;6.45;1.58;;;;;;;16.97;84.59;102147.75;5014115;28;20134;-46
2022/07/07 06:42:35;;;;;;;8.02;1.77;;;;;;;16.59;85.64;102158.19;5013826;28;20081;-46
2022/07/07 06:45:01;;;;;;;7.15;0.98;;;;;;;16.18;87.28;102160.19;5014848;28;20062;-44
2022/07/07 06:47:27;;;;;;;3.05;1.00;;;;;;;15.95;87.35;102164.16;5014599;28;20054;-45
2022/07/07 06:49:54;;;;;;;3.35;1.05;;;;;;;15.80;89.94;102173.19;5014186;28;20058;-44
2022/07/07 06:52:20;;;;;;;2.75;1.23;;;;;;;15.94;90.57;102175.34;5014561;28;20050;-46
2022/07/07 06:54:47;;;;;;;2.47;1.20;;;;;;;16.23;89.73;102177.69;5014376;28;20055;-45
2022/07/07 06:57:15;;;;;;;6.72;1.27;;;;;;;16.34;88.41;102167.25;5014616;28;20528;-43
2022/07/07 06:59:41;;;;;;;6.05;1.52;;;;;;;16.42;87.56;102170.41;5014178;28;20054;-45
2022/07/07 07:02:07;;;;;;;7.60;1.40;;;;;;;16.58;87.53;102172.81;5014567;28;20057;-44
2022/07/07 07:04:34;;;;;;;9.25;1.38;;;;;;;16.76;86.32;102170.19;5014642;28;20051;-44
2022/07/07 07:07:01;;;;;;;7.93;1.50;;;;;;;17.17;86.22;102176.91;5013343;28;20141;-43
2022/07/07 07:09:27;;;;;;;4.15;1.45;;;;;;;18.00;83.62;102174.72;5012399;28;20486;-44
2022/07/07 07:11:54;;;;;;;4.03;1.50;;;;;;;18.87;78.32;102170.88;5014252;28;20047;-45
2022/07/07 07:14:24;;;;;;;6.10;1.30;;;;;;;20.51;70.21;102178.28;5013678;28;20058;-46
2022/07/07 07:16:51;;;;;;;6.25;1.33;;;;;;;20.14;72.30;102172.66;5012465;28;20046;-48
2022/07/07 07:19:17;;;;;;;5.43;1.27;;;;;;;19.54;70.89;102176.72;5013988;28;20055;-45
2022/07/07 07:21:44;;;;;;;4.18;1.40;;;;;;;20.21;70.25;102186.50;5013474;28;20062;-49
2022/07/07 07:24:11;;;;;;;3.13;1.00;;;;;;;20.54;65.26;102194.31;5013876;28;20049;-46
2022/07/07 07:26:38;;;;;;;4.13;1.10;;;;;;;21.34;64.48;102191.22;5013247;28;20482;-47
2022/07/07 07:29:12;;;;;;;3.83;1.17;;;;;;;21.18;63.83;102187.13;5013548;28;20050;-45
2022/07/07 07:31:38;;;;;;;4.05;1.10;;;;;;;20.35;65.45;102193.09;5013927;28;20051;-44
2022/07/07 07:34:05;;;;;;;4.00;1.20;;;;;;;19.43;71.22;102193.44;5014188;28;20528;-45
2022/07/07 07:36:31;;;;;;;4.50;1.55;;;;;;;18.91;69.69;102193.03;5013579;28;20277;-47
2022/07/07 07:38:58;;;;;;;4.95;1.25;;;;;;;18.44;74.32;102188.38;5013047;28;20068;-44
2022/07/07 07:41:25;;;;;;;3.60;1.02;;;;;;;18.67;76.19;102197.72;5012724;28;20064;-44
2022/07/07 07:43:51;;;;;;;6.00;1.20;;;;;;;20.58;66.78;102199.53;5014129;28;20054;-44
2022/07/07 07:46:19;;;;;;;3.40;1.20;;;;;;;20.99;65.38;102205.66;5012890;28;20485;-44
2022/07/07 07:48:46;;;;;;;4.72;0.93;;;;;;;21.15;63.98;102226.00;5013758;28;20062;-44
2022/07/07 07:51:13;;;;;;;5.03;1.00;;;;;;;20.85;62.71;102218.03;5008647;28;20078;-44
2022/07/07 07:53:39;;;;;;;3.25;1.00;;;;;;;20.51;65.28;102218.88;5013611;28;20066;-44
2022/07/07 07:56:06;;;;;;;5.35;1.30;;;;;;;20.86;63.45;102214.13;5013191;28;20050;-44
2022/07/07 07:58:32;;;;;;;3.22;1.17;;;;;;;20.36;65.73;102229.00;5013402;28;20058;-44
2022/07/07 08:00:59;;;;;;;3.15;0.82;;;;;;;19.59;69.09;102228.09;5013128;28;20046;-45
2022/07/07 08:03:25;;;;;;;2.65;1.00;;;;;;;18.97;69.85;102234.34;5013543;28;20247;-46
2022/07/07 08:05:53;;;;;;;5.30;1.48;;;;;;;18.46;75.95;102244.56;5013240;28;20553;-46
2022/07/07 08:08:19;;;;;;;2.40;1.05;;;;;;;18.06;78.91;102239.50;5012797;28;20082;-45
2022/07/07 08:10:45;;;;;;;2.63;1.10;;;;;;;18.11;80.59;102238.88;5013648;28;20610;-46
2022/07/07 08:13:12;;;;;;;2.22;1.05;;;;;;;18.61;79.93;102232.66;5013204;28;20058;-46
2022/07/07 08:15:38;;;;;;;3.45;1.10;;;;;;;19.62;76.10;102237.22;5012619;28;20050;-44
2022/07/07 08:18:05;;;;;;;5.25;1.15;;;;;;;21.11;71.77;102234.31;5011128;28;20061;-45
2022/07/07 08:20:31;;;;;;;4.50;1.15;;;;;;;21.66;68.12;102230.63;5007781;28;20597;-44
2022/07/07 08:22:58;;;;;;;3.17;1.13;;;;;;;21.88;66.10;102235.50;5012018;28;20050;-47
2022/07/07 08:25:24;;;;;;;1.65;0.93;;;;;;;22.40;65.70;102224.44;5012101;28;20082;-47
2022/07/07 08:27:50;;;;;;;2.90;1.10;;;;;;;21.93;62.88;102246.38;5009753;28;20501;-45
2022/07/07 08:30:17;;;;;;;2.30;1.00;;;;;;;20.95;64.80;102230.22;5010463;28;20053;-45
2022/07/07 08:32:45;;;;;;;4.45;1.00;;;;;;;20.43;66.48;102236.72;5005548;28;20051;-45
2022/07/07 08:35:14;;;;;;;2.35;0.90;;;;;;;20.18;66.68;102236.13;5009553;28;20490;-45
2022/07/07 08:37:41;;;;;;;0.70;0.57;;;;;;;20.91;66.09;102243.19;5008826;28;20070;-48
2022/07/07 08:40:08;;;;;;;2.20;0.60;;;;;;;20.84;63.50;102240.16;5011540;28;20225;-44
2022/07/07 08:42:39;;;;;;;2.00;0.80;;;;;;;20.10;68.80;102236.97;5012896;28;20047;-47
2022/07/07 08:45:06;;;;;;;1.95;0.70;;;;;;;19.48;67.58;102246.81;5015389;28;20413;-44
2022/07/07 08:47:33;;;;;;;1.73;0.80;;;;;;;19.05;71.30;102247.50;5014526;28;20129;-44
2022/07/07 08:50:00;;;;;;;3.30;0.93;;;;;;;18.63;73.99;102265.31;5014168;28;20062;-45
2022/07/07 08:52:27;;;;;;;2.13;0.70;;;;;;;18.47;77.60;102273.75;5013156;28;20073;-45
2022/07/07 08:54:54;;;;;;;1.33;0.88;;;;;;;18.66;74.36;102269.03;5013627;28;20056;-47
2022/07/07 08:57:21;;;;;;;8.02;1.00;;;;;;;19.06;73.17;102271.31;5013930;28;20059;-47
2022/07/07 08:59:48;;;;;;;2.45;0.90;;;;;;;19.30;74.67;102268.56;5013588;28;20050;-45
2022/07/07 09:02:14;;;;;;;2.13;0.60;;;;;;;20.36;71.77;102285.78;5013421;28;20059;-45
2022/07/07 09:04:41;;;;;;;0.63;0.52;;;;;;;21.50;66.21;102285.44;5016251;28;20051;-45
2022/07/07 09:07:07;;;;;;;2.63;0.70;;;;;;;22.08;61.16;102278.78;5015341;28;20501;-45
2022/07/07 09:09:45;;;;;;;4.13;0.70;;;;;;;21.76;63.78;102288.13;5016294;28;20050;-47
2022/07/07 09:12:14;;;;;;;2.20;0.95;;;;;;;21.06;62.87;102291.84;5016304;28;20065;-46
2022/07/07 09:14:49;;;;;;;3.05;1.10;;;;;;;21.67;66.50;102289.03;5010705;28;20055;-45
2022/07/07 09:17:31;;;;;;;2.45;1.00;;;;;;;22.38;60.01;102294.75;5013989;28;20501;-45
2022/07/07 09:20:13;;;;;;;2.67;1.00;;;;;;;22.82;58.55;102296.94;5014907;28;20532;-46
2022/07/07 09:22:47;;;;;;;1.15;0.77;;;;;;;22.26;61.35;102302.81;5013472;28;20996;-45
2022/07/07 09:25:16;;;;;;;6.68;1.05;;;;;;;22.25;60.83;102308.72;5015085;28;20458;-46
2022/07/07 09:27:50;;;;;;;2.85;0.90;;;;;;;22.97;58.42;102300.22;5010150;28;20058;-46
2022/07/07 09:30:34;;;;;;;2.50;0.90;;;;;;;22.80;58.44;102307.53;5012557;28;20503;-47
2022/07/07 09:33:06;;;;;;;1.95;1.00;;;;;;;23.01;59.28;102308.88;5013378;28;20059;-47
2022/07/07 09:38:23;;;;;;;3.22;0.80;;;;;;;22.86;57.81;102317.19;5023560;28;20069;-45
2022/07/07 09:41:02;;;;;;;1.30;0.73;;;;;;;22.66;58.46;102330.91;5014679;28;20054;-52
2022/07/07 09:43:33;;;;;;;3.50;0.93;;;;;;;21.52;61.04;102335.22;5015559;28;20082;-44
2022/07/07 09:46:15;;;;;;;2.42;1.00;;;;;;;20.31;65.07;102341.28;5015707;28;20082;-49
2022/07/07 09:48:44;;;;;;;4.13;1.25;;;;;;;19.82;67.90;102355.47;5015756;28;20522;-49
2022/07/07 09:51:10;;;;;;;5.60;1.00;;;;;;;19.79;68.64;102350.97;5014459;28;20061;-47
2022/07/07 09:54:01;;;;;;;3.40;0.82;;;;;;;20.02;66.80;102344.72;5015425;28;20426;-46
2022/07/07 09:56:38;;;;;;;2.90;1.02;;;;;;;20.66;64.51;102352.13;5014895;28;20133;-45
2022/07/07 09:59:09;;;;;;;0.80;0.75;;;;;;;21.48;66.32;102356.34;5015377;28;20110;-47
2022/07/07 10:01:38;;;;;;;1.92;1.20;;;;;;;22.34;63.20;102362.78;5011850;28;20055;-49
2022/07/07 10:04:07;;;;;;;6.85;1.00;;;;;;;23.34;59.27;102359.09;5014071;28;20054;-51
2022/07/07 10:06:36;;;;;;;4.20;1.30;;;;;;;24.11;59.16;102350.28;5011978;28;20054;-48
2022/07/07 10:09:07;;;;;;;3.72;0.88;;;;;;;23.85;55.65;102361.44;5013708;28;20060;-50
2022/07/07 10:11:40;;;;;;;3.40;0.95;;;;;;;22.32;57.58;102365.25;5013975;28;20057;-48
2022/07/07 10:14:15;;;;;;;3.70;1.15;;;;;;;21.59;59.01;102374.69;5014755;28;20379;-48
2022/07/07 10:16:45;;;;;;;2.92;1.27;;;;;;;21.36;60.46;102371.00;5014570;28;20050;-49
2022/07/07 10:19:14;;;;;;;5.55;1.30;;;;;;;21.79;61.59;102371.19;5014820;28;20054;-46
2022/07/07 10:21:42;;;;;;;3.65;1.50;;;;;;;22.27;57.86;102369.41;5014549;28;20054;-48
2022/07/07 10:24:10;;;;;;;3.50;1.40;;;;;;;22.20;57.97;102377.22;5014987;28;20050;-49
2022/07/07 10:26:46;;;;;;;4.70;1.52;;;;;;;21.55;60.57;102390.41;5015070;28;20529;-48
2022/07/07 10:29:13;;;;;;;4.60;1.67;;;;;;;20.80;64.58;102389.22;5013348;28;20062;-50
2022/07/07 10:31:40;;;;;;;6.00;1.85;;;;;;;19.95;69.98;102410.75;5013545;28;20573;-45
2022/07/07 10:34:09;;;;;;;4.47;1.50;;;;;;;19.45;74.04;102409.03;5014517;28;20046;-46
2022/07/07 10:36:50;;;;;;;2.88;1.20;;;;;;;19.21;75.91;102431.34;5014637;28;20051;-50
2022/07/07 10:39:21;;;;;;;2.58;1.23;;;;;;;19.09;75.79;102429.63;5013661;28;20069;-45
2022/07/07 10:42:12;;;;;;;3.95;1.40;;;;;;;19.25;76.34;102439.28;5013621;28;20069;-46
2022/07/07 10:44:39;;;;;;;2.20;0.90;;;;;;;19.45;74.84;102425.97;5014435;28;20058;-45
2022/07/07 10:47:12;;;;;;;1.77;0.95;;;;;;;19.92;76.85;102432.53;5014578;28;20047;-47
2022/07/07 10:49:44;;;;;;;3.35;1.00;;;;;;;20.23;71.91;102435.53;5013781;28;20050;-46
2022/07/07 10:52:18;;;;;;;2.00;0.88;;;;;;;20.38;70.38;102429.44;5014255;28;20046;-47
2022/07/07 10:55:00;;;;;;;1.80;1.00;;;;;;;20.21;71.72;102435.25;5013470;28;20089;-46
2022/07/07 10:57:29;;;;;;;2.25;1.13;;;;;;;19.51;74.23;102453.88;5013957;28;20145;-48
2022/07/07 11:00:07;;;;;;;4.00;1.05;;;;;;;19.10;77.02;102457.38;5012495;28;20141;-46
2022/07/07 11:02:48;;;;;;;2.53;1.00;;;;;;;19.06;76.45;102464.91;5013434;28;20055;-47
2022/07/07 11:05:14;;;;;;;2.38;1.10;;;;;;;19.07;77.06;102469.09;5010152;28;20054;-48
2022/07/07 11:07:42;;;;;;;1.40;0.98;;;;;;;19.11;77.63;102467.72;5013253;28;20050;-45
2022/07/07 11:10:13;;;;;;;2.67;1.08;;;;;;;19.27;77.41;102475.41;5013619;28;20145;-51
2022/07/07 11:12:41;;;;;;;1.23;1.13;;;;;;;19.50;74.51;102473.19;5013298;28;20077;-48
2022/07/07 11:15:23;;;;;;;2.45;0.95;;;;;;;20.06;73.31;102474.28;5013348;28;20057;-47
2022/07/07 11:17:52;;;;;;;3.83;1.00;;;;;;;19.99;70.54;102478.84;5013098;28;20477;-48
2022/07/07 11:20:21;;;;;;;2.53;0.60;;;;;;;19.67;73.26;102485.09;5013104;28;20395;-45
2022/07/07 11:22:51;;;;;;;1.20;1.05;;;;;;;19.10;75.81;102509.41;5011617;28;20117;-45
2022/07/07 11:25:20;;;;;;;4.20;1.58;;;;;;;18.35;80.16;102503.88;5013391;28;20571;-46
2022/07/07 11:27:49;;;;;;;2.45;1.30;;;;;;;18.07;83.25;102505.81;5009993;28;20054;-46
2022/07/07 11:30:20;;;;;;;5.72;1.95;;;;;;;17.92;82.88;102518.41;5013113;28;20062;-47
2022/07/07 11:32:46;;;;;;;2.92;1.50;;;;;;;17.78;83.84;102524.38;5011948;28;20061;-46